Naylor, Arkansas
Current Conditions -  °F | °C
As of 9:58 AM on Wednesday 26 Nov 2014 (Local Time) from KLRF Reporting Station
Broken Clouds Broken Clouds  
Wind Chill: 37°   Ceiling: 12000
Heat Index: 41°   Visibility: 10mi
Dew Point: 34°   Wind: 7mph
Humidity: 77%   Direction: 190°S
Pressure: 30.03"   Gusts: NA
Location:  35.0719°N, 92.1713°W
Report Text: KLRF 261558Z AUTO 19006KT 10SM BKN120 05/01 A3003 RMK AO2 SLP174 T00510013 $
Loading
Personal Weather Stations






























Interactive Weather Map New forecast layout! Learn more

10-Day Weather Forecast

Advertisements
Track Severe Weather on mobile